createdAt,value
2017-06-29T00:00:37.776Z,12.40
2017-06-29T00:03:06.309Z,12.07
2017-06-29T00:05:34.932Z,14.87
2017-06-29T00:08:03.434Z,12.67
2017-06-29T00:10:32.188Z,13.80
2017-06-29T00:13:00.683Z,12.27
2017-06-29T00:15:29.173Z,11.07
2017-06-29T00:17:57.678Z,12.83
2017-06-29T00:20:26.165Z,12.63
2017-06-29T00:22:54.695Z,12.87
2017-06-29T00:25:23.157Z,12.70
2017-06-29T00:27:51.674Z,13.40
2017-06-29T00:30:20.172Z,14.23
2017-06-29T00:32:48.674Z,16.20
2017-06-29T00:35:17.219Z,16.30
2017-06-29T00:37:45.706Z,16.83
2017-06-29T00:40:14.276Z,16.47
2017-06-29T00:42:42.891Z,16.40
2017-06-29T00:45:11.606Z,17.60
2017-06-29T00:47:40.094Z,17.90
2017-06-29T00:50:08.601Z,18.30
2017-06-29T00:52:37.092Z,16.80
2017-06-29T00:55:05.549Z,16.23
2017-06-29T00:57:34.093Z,16.37
2017-06-29T01:00:02.594Z,15.93
2017-06-29T01:02:31.086Z,17.53
2017-06-29T01:05:00.429Z,15.10
2017-06-29T01:07:28.943Z,15.10
2017-06-29T01:09:57.579Z,15.33
2017-06-29T01:12:26.810Z,15.27
2017-06-29T01:14:55.417Z,16.40
2017-06-29T01:17:23.906Z,15.27
2017-06-29T01:19:53.156Z,16.03
2017-06-29T01:22:21.651Z,15.40
2017-06-29T01:24:50.148Z,17.33
2017-06-29T01:27:18.654Z,15.33
2017-06-29T01:29:47.304Z,14.77
2017-06-29T01:32:15.964Z,16.57
2017-06-29T01:34:45.259Z,17.70
2017-06-29T01:37:14.591Z,17.07
2017-06-29T01:39:43.117Z,18.03
2017-06-29T01:42:11.655Z,16.37
2017-06-29T01:44:40.348Z,16.80
2017-06-29T01:47:08.838Z,16.53
2017-06-29T01:49:37.349Z,17.80
2017-06-29T01:52:05.901Z,15.73
2017-06-29T01:54:34.479Z,19.30
2017-06-29T01:57:03.062Z,18.40
2017-06-29T01:59:31.773Z,17.87
2017-06-29T02:02:00.437Z,20.30
2017-06-29T02:04:28.933Z,17.70
2017-06-29T02:06:57.609Z,18.43
2017-06-29T02:09:26.130Z,18.73
2017-06-29T02:11:54.719Z,19.20
2017-06-29T02:14:23.262Z,20.70
2017-06-29T02:16:51.825Z,20.40
2017-06-29T02:19:21.122Z,19.67
2017-06-29T02:21:50.338Z,21.37
2017-06-29T02:24:18.825Z,22.63
2017-06-29T02:26:47.314Z,22.30
2017-06-29T02:29:15.933Z,23.17
2017-06-29T02:31:44.458Z,21.10
2017-06-29T02:34:13.729Z,26.10
2017-06-29T02:36:42.213Z,26.87
2017-06-29T02:39:10.795Z,26.13
2017-06-29T02:41:39.258Z,26.93
2017-06-29T02:44:07.738Z,27.03
2017-06-29T02:46:36.219Z,26.90
2017-06-29T02:49:04.705Z,28.70
2017-06-29T02:51:33.261Z,27.47
2017-06-29T02:54:01.725Z,29.27
2017-06-29T02:56:30.204Z,29.23
2017-06-29T02:58:58.850Z,31.03
2017-06-29T03:01:27.597Z,31.60
2017-06-29T03:03:56.097Z,32.40
2017-06-29T03:06:24.596Z,33.67
2017-06-29T03:08:53.172Z,32.80
2017-06-29T03:11:21.698Z,31.53
2017-06-29T03:13:50.172Z,30.80
2017-06-29T03:16:18.668Z,31.87
2017-06-29T03:18:47.178Z,33.10
2017-06-29T03:21:15.696Z,30.23
2017-06-29T03:23:44.201Z,32.90
2017-06-29T03:26:12.725Z,29.73
2017-06-29T03:28:41.417Z,32.40
2017-06-29T03:31:10.048Z,33.60
2017-06-29T03:33:38.549Z,33.37
2017-06-29T03:36:07.268Z,32.30
2017-06-29T03:38:35.902Z,33.30
2017-06-29T03:41:04.402Z,32.37
2017-06-29T03:43:33.026Z,31.57
2017-06-29T03:46:01.530Z,33.30
2017-06-29T03:48:30.134Z,27.97
2017-06-29T03:50:58.776Z,33.27
2017-06-29T03:53:27.254Z,32.63
2017-06-29T03:55:55.737Z,31.53
2017-06-29T03:58:24.231Z,34.00
2017-06-29T04:00:52.713Z,35.63
2017-06-29T04:03:21.209Z,33.73
2017-06-29T04:05:49.764Z,31.20
2017-06-29T04:08:18.548Z,33.70
2017-06-29T04:10:47.029Z,30.57
2017-06-29T04:13:15.731Z,33.57
2017-06-29T04:15:44.237Z,30.57
2017-06-29T04:18:12.929Z,32.43
2017-06-29T04:20:41.526Z,31.27
2017-06-29T04:23:10.021Z,32.03
2017-06-29T04:25:39.221Z,34.43
2017-06-29T04:28:07.705Z,30.50
2017-06-29T04:30:36.218Z,29.67
2017-06-29T04:33:04.706Z,33.80
2017-06-29T04:35:33.222Z,33.47
2017-06-29T04:38:01.746Z,33.37
2017-06-29T04:40:30.966Z,33.30
2017-06-29T04:42:59.495Z,33.67
2017-06-29T04:45:28.091Z,33.67
2017-06-29T04:47:56.631Z,29.73
2017-06-29T04:50:25.126Z,31.17
2017-06-29T04:52:53.625Z,28.73
2017-06-29T04:55:22.112Z,28.00
2017-06-29T04:57:51.590Z,25.60
2017-06-29T05:00:20.063Z,28.03
2017-06-29T05:02:48.649Z,27.03
2017-06-29T05:05:17.172Z,27.33
2017-06-29T05:07:45.699Z,28.43
2017-06-29T05:10:14.700Z,26.47
2017-06-29T05:12:43.300Z,28.37
2017-06-29T05:15:11.775Z,29.50
2017-06-29T05:17:40.290Z,25.80
2017-06-29T05:20:08.806Z,28.90
2017-06-29T05:22:37.342Z,29.87
2017-06-29T05:25:05.835Z,30.00
2017-06-29T05:27:34.594Z,31.10
2017-06-29T05:30:03.298Z,32.90
2017-06-29T05:32:31.809Z,30.57
2017-06-29T05:35:00.340Z,31.50
2017-06-29T05:37:28.997Z,31.50
2017-06-29T05:39:57.631Z,33.20
2017-06-29T05:42:26.172Z,32.60
2017-06-29T05:44:54.596Z,32.00
2017-06-29T05:47:23.134Z,31.40
2017-06-29T05:49:51.861Z,28.33
2017-06-29T05:52:20.421Z,32.90
2017-06-29T05:54:48.884Z,31.77
2017-06-29T05:57:17.650Z,31.47
2017-06-29T05:59:46.169Z,37.73
2017-06-29T06:02:15.384Z,36.40
2017-06-29T06:04:43.856Z,33.87
2017-06-29T06:07:12.672Z,33.30
2017-06-29T06:09:41.203Z,30.77
2017-06-29T06:12:09.740Z,32.23
2017-06-29T06:14:38.239Z,30.20
2017-06-29T06:17:06.687Z,30.00
2017-06-29T06:19:35.180Z,29.40
2017-06-29T06:22:03.652Z,29.50
2017-06-29T06:24:32.177Z,30.40
2017-06-29T06:27:01.860Z,31.60
2017-06-29T06:29:30.341Z,29.37
2017-06-29T06:31:58.964Z,27.60
2017-06-29T06:34:27.525Z,28.50
2017-06-29T06:36:56.069Z,28.00
2017-06-29T06:39:25.369Z,25.17
2017-06-29T06:41:54.597Z,24.80
2017-06-29T06:44:23.243Z,21.50
2017-06-29T06:46:51.895Z,22.07
2017-06-29T06:49:20.597Z,23.20
2017-06-29T06:51:49.170Z,23.37
2017-06-29T06:54:17.685Z,24.03
2017-06-29T06:56:46.968Z,23.80
2017-06-29T06:59:15.542Z,22.97
2017-06-29T07:01:44.045Z,20.53
2017-06-29T07:04:12.521Z,19.93
2017-06-29T07:06:41.093Z,21.83
2017-06-29T07:09:09.675Z,21.40
2017-06-29T07:11:38.212Z,20.30
2017-06-29T07:14:06.720Z,20.83
2017-06-29T07:16:35.197Z,20.70
2017-06-29T07:19:03.901Z,19.30
2017-06-29T07:21:32.465Z,21.00
2017-06-29T07:24:01.085Z,23.47
2017-06-29T07:26:29.723Z,21.33
2017-06-29T07:29:00.565Z,21.93
2017-06-29T07:31:29.075Z,18.90
2017-06-29T07:34:01.098Z,20.30
2017-06-29T07:36:29.744Z,20.90
2017-06-29T07:38:58.949Z,22.80
2017-06-29T07:41:27.569Z,19.80
2017-06-29T07:43:57.544Z,19.90
2017-06-29T07:46:26.098Z,19.30
2017-06-29T07:48:54.627Z,17.10
2017-06-29T07:51:23.255Z,19.33
2017-06-29T07:53:51.803Z,21.10
2017-06-29T07:56:20.541Z,17.50
2017-06-29T07:58:49.533Z,16.40
2017-06-29T08:01:18.215Z,15.97
2017-06-29T08:03:46.733Z,13.07
2017-06-29T08:06:15.545Z,13.33
2017-06-29T08:08:44.091Z,13.23
2017-06-29T08:11:12.620Z,11.93
2017-06-29T08:13:41.109Z,12.17
2017-06-29T08:16:09.612Z,10.57
2017-06-29T08:18:38.261Z,12.93
2017-06-29T08:21:06.786Z,10.33
2017-06-29T08:23:35.380Z,9.93
2017-06-29T08:26:03.964Z,10.20
2017-06-29T08:28:32.541Z,10.60
2017-06-29T08:33:29.029Z,10.10
2017-06-29T08:35:57.604Z,9.70
2017-06-29T08:38:26.178Z,9.80
2017-06-29T08:40:54.745Z,11.10
2017-06-29T08:43:23.212Z,9.77
2017-06-29T08:45:51.680Z,10.97
2017-06-29T08:48:20.243Z,10.13
2017-06-29T08:50:48.769Z,10.73
2017-06-29T08:53:17.254Z,10.03
2017-06-29T08:55:45.775Z,11.07
2017-06-29T08:58:14.369Z,9.17
2017-06-29T09:00:42.906Z,9.23
2017-06-29T09:03:11.571Z,9.40
2017-06-29T09:05:40.182Z,9.20
2017-06-29T09:08:08.644Z,11.00
2017-06-29T09:10:37.345Z,10.97
2017-06-29T09:13:05.841Z,8.97
2017-06-29T09:15:34.328Z,9.07
2017-06-29T09:18:07.401Z,10.00
2017-06-29T09:20:36.152Z,10.90
2017-06-29T09:23:04.746Z,10.47
2017-06-29T09:25:34.150Z,9.40
2017-06-29T09:28:02.600Z,10.10
2017-06-29T09:30:31.126Z,10.00
2017-06-29T09:32:59.640Z,9.60
2017-06-29T09:35:28.105Z,9.37
2017-06-29T09:37:57.105Z,8.90
2017-06-29T09:40:25.606Z,9.43
2017-06-29T09:42:54.056Z,9.47
2017-06-29T09:45:22.562Z,9.77
2017-06-29T09:47:51.263Z,8.70
2017-06-29T09:50:19.939Z,6.50
2017-06-29T09:52:48.609Z,6.93
2017-06-29T09:55:17.197Z,6.87
2017-06-29T09:57:45.677Z,6.53
2017-06-29T10:00:14.180Z,6.60
2017-06-29T10:02:42.777Z,6.30
2017-06-29T10:05:11.400Z,6.10
2017-06-29T10:07:40.682Z,7.40
2017-06-29T10:10:09.415Z,7.50
2017-06-29T10:12:38.210Z,6.90
2017-06-29T10:15:06.867Z,7.50
2017-06-29T10:17:35.345Z,6.00
2017-06-29T10:20:03.843Z,5.83
2017-06-29T10:22:32.349Z,5.47
2017-06-29T10:25:00.821Z,5.70
2017-06-29T10:27:29.691Z,6.40
2017-06-29T10:29:58.232Z,6.97
2017-06-29T10:32:26.788Z,7.30
2017-06-29T10:34:55.328Z,7.30
2017-06-29T10:37:24.578Z,5.63
2017-06-29T10:39:53.246Z,5.90
2017-06-29T10:42:22.134Z,6.50
2017-06-29T10:44:51.750Z,7.17
2017-06-29T10:47:20.609Z,7.20
2017-06-29T10:49:49.819Z,6.20
2017-06-29T10:52:18.320Z,5.23
2017-06-29T10:57:17.118Z,4.90
2017-06-29T10:59:46.013Z,6.15
2017-06-29T11:02:14.516Z,6.00
2017-06-29T11:04:42.980Z,4.90
2017-06-29T11:07:11.563Z,5.40
2017-06-29T11:09:40.105Z,5.20
2017-06-29T11:12:08.578Z,4.83
2017-06-29T11:14:37.012Z,3.87
2017-06-29T11:17:05.531Z,4.57
2017-06-29T11:19:34.280Z,4.07
2017-06-29T11:22:03.017Z,3.10
2017-06-29T11:24:31.732Z,3.30
2017-06-29T11:27:01.088Z,3.67
2017-06-29T11:29:29.569Z,4.00
2017-06-29T11:31:58.317Z,3.40
2017-06-29T11:34:27.311Z,2.40
2017-06-29T11:36:55.769Z,3.10
2017-06-29T11:39:25.038Z,3.20
2017-06-29T11:41:53.735Z,2.10
2017-06-29T11:44:22.257Z,2.73
2017-06-29T11:46:50.751Z,3.17
2017-06-29T11:49:19.418Z,3.50
2017-06-29T11:51:47.964Z,6.47
2017-06-29T11:54:16.905Z,3.20
2017-06-29T11:56:45.419Z,2.90
2017-06-29T11:59:13.931Z,3.63
2017-06-29T12:01:42.509Z,4.40
2017-06-29T12:04:11.029Z,3.87
2017-06-29T12:06:40.292Z,3.87
2017-06-29T12:09:08.804Z,4.00
2017-06-29T12:14:15.154Z,3.50
2017-06-29T12:16:44.013Z,3.00
2017-06-29T12:19:12.622Z,4.67
2017-06-29T12:21:41.157Z,3.10
2017-06-29T12:24:09.841Z,4.10
2017-06-29T12:29:07.040Z,3.33
2017-06-29T12:43:56.803Z,3.30
2017-06-29T12:46:26.782Z,2.83
2017-06-29T12:48:55.308Z,3.03
2017-06-29T12:53:52.910Z,2.90
2017-06-29T12:56:21.397Z,3.60
2017-06-29T12:58:50.132Z,3.50
2017-06-29T13:01:18.626Z,2.77
2017-06-29T13:03:47.140Z,3.07
2017-06-29T13:06:15.849Z,3.60
2017-06-29T13:08:44.486Z,3.60
2017-06-29T13:11:13.013Z,2.90
2017-06-29T13:35:47.243Z,4.60
2017-06-29T13:38:15.792Z,4.33
2017-06-29T13:40:44.362Z,4.50
2017-06-29T13:43:12.973Z,5.27
2017-06-29T13:54:36.644Z,6.73
2017-06-29T13:57:05.094Z,4.20
2017-06-29T13:59:33.734Z,3.70
2017-06-29T14:02:02.484Z,4.50
2017-06-29T14:14:16.046Z,3.80
2017-06-29T14:16:47.122Z,5.90
2017-06-29T14:19:15.963Z,5.60
2017-06-29T14:25:18.352Z,5.30
2017-06-29T14:27:47.182Z,5.20
2017-06-29T14:30:15.652Z,4.37
2017-06-29T14:32:44.985Z,5.20
2017-06-29T14:35:13.952Z,4.53
2017-06-29T14:46:52.541Z,4.37
2017-06-29T14:49:21.748Z,6.40
2017-06-29T14:51:50.282Z,5.60
2017-06-29T14:54:18.837Z,5.70
2017-06-29T14:56:47.552Z,4.87
2017-06-29T15:09:01.730Z,6.00
2017-06-29T15:11:30.196Z,6.57
2017-06-29T15:13:58.750Z,6.80
2017-06-29T15:16:27.529Z,7.00
2017-06-29T15:18:56.016Z,7.20
2017-06-29T15:21:24.736Z,7.30
2017-06-29T15:23:53.448Z,6.70
2017-06-29T15:26:22.544Z,6.83
2017-06-29T15:28:51.228Z,7.50
2017-06-29T15:31:26.017Z,7.30
2017-06-29T15:43:40.029Z,6.73
2017-06-29T15:46:09.272Z,5.93
2017-06-29T15:48:37.761Z,7.20
2017-06-29T15:51:06.257Z,7.47
2017-06-29T15:53:34.795Z,7.50
2017-06-29T15:56:03.386Z,7.67
2017-06-29T15:58:31.917Z,7.63
2017-06-29T16:01:00.575Z,6.50
2017-06-29T16:03:29.209Z,5.80
2017-06-29T16:05:57.837Z,5.20
2017-06-29T16:08:26.286Z,6.27
2017-06-29T16:10:54.735Z,5.97
2017-06-29T16:13:23.200Z,6.63
2017-06-29T16:15:51.683Z,6.10
2017-06-29T16:28:06.014Z,5.80
2017-06-29T16:40:19.584Z,7.63
2017-06-29T16:42:48.110Z,6.53
2017-06-29T16:45:16.966Z,6.10
2017-06-29T16:47:47.246Z,5.90
2017-06-29T16:50:15.936Z,6.40
2017-06-29T17:02:30.173Z,5.53
2017-06-29T17:04:58.641Z,6.40
2017-06-29T17:07:27.120Z,6.60
2017-06-29T17:09:55.826Z,7.87
2017-06-29T17:12:24.988Z,5.67
2017-06-29T17:14:55.384Z,6.40
2017-06-29T17:17:23.847Z,5.70
2017-06-29T17:19:52.352Z,6.70
2017-06-29T17:22:21.031Z,6.77
2017-06-29T17:24:49.817Z,7.33
2017-06-29T17:37:03.673Z,6.90
2017-06-29T17:39:32.540Z,7.27
2017-06-29T17:42:01.048Z,8.40
2017-06-29T17:57:30.257Z,9.40
2017-06-29T18:12:55.995Z,7.87
2017-06-29T18:25:09.673Z,15.10
2017-06-29T18:27:38.210Z,19.60
2017-06-29T18:30:07.090Z,20.90
2017-06-29T18:32:35.661Z,23.60
2017-06-29T18:35:04.596Z,21.27
2017-06-29T18:37:34.401Z,22.20
2017-06-29T18:40:02.964Z,22.47
2017-06-29T18:42:31.659Z,23.10
2017-06-29T18:45:00.458Z,22.13
2017-06-29T18:47:29.005Z,22.47
2017-06-29T18:49:57.739Z,23.80
2017-06-29T18:52:27.982Z,23.60
2017-06-29T19:06:07.684Z,22.83
2017-06-29T19:08:41.648Z,23.50
2017-06-29T19:11:11.249Z,23.70
2017-06-29T19:13:42.658Z,23.77
2017-06-29T19:16:12.042Z,22.80
2017-06-29T19:18:47.311Z,24.70
2017-06-29T19:31:01.463Z,24.07
2017-06-29T19:33:30.721Z,22.50
2017-06-29T19:35:59.278Z,26.00
